Time;durP1;ratioP1;P1;durP2;ratioP2;P2;SDS_P1;SDS_P2;PMS_P1;PMS_P2;Temp;Humidity;BMP_temperature;BMP_pressure;BME280_temperature;BME280_humidity;BME280_pressure;Samples;Min_cycle;Max_cycle;Signal;HPM_P1;HPM_P2
2022/01/27 00:02:49;;;;;;;44.08;15.55;;;3.00;69.90;;;;;;2529154;52;21417;-68
2022/01/27 00:05:18;;;;;;;42.90;15.85;;;3.00;69.90;;;;;;2415464;53;20924;-66
2022/01/27 00:08:10;;;;;;;45.42;15.05;;;2.90;69.90;;;;;;2371513;53;20919;-67
2022/01/27 00:10:57;;;;;;;41.28;15.35;;;2.90;69.90;;;;;;2395346;53;20995;-67
2022/01/27 00:13:29;;;;;;;35.70;13.20;;;2.90;70.00;;;;;;2630322;52;21456;-68
2022/01/27 00:16:10;;;;;;;47.53;15.68;;;2.90;70.20;;;;;;2394792;53;20983;-68
2022/01/27 00:18:37;;;;;;;43.42;15.52;;;2.90;70.20;;;;;;2395412;53;20983;-68
2022/01/27 00:21:03;;;;;;;38.60;14.80;;;2.90;70.90;;;;;;2395448;53;20928;-66
2022/01/27 00:23:29;;;;;;;45.33;16.50;;;2.90;70.30;;;;;;2469212;52;20941;-69
2022/01/27 00:25:56;;;;;;;45.83;16.67;;;2.90;70.30;;;;;;2355088;53;21586;-68
2022/01/27 00:28:22;;;;;;;45.63;16.85;;;2.90;70.30;;;;;;2395385;53;20963;-68
2022/01/27 00:30:48;;;;;;;36.72;14.87;;;2.90;70.40;;;;;;2395847;53;20907;-68
2022/01/27 00:33:16;;;;;;;48.60;17.70;;;2.90;70.40;;;;;;2395826;53;20958;-67
2022/01/27 00:35:42;;;;;;;49.45;18.17;;;2.90;70.30;;;;;;2608907;52;20983;-68
2022/01/27 00:38:08;;;;;;;46.88;16.95;;;2.90;70.30;;;;;;2395383;53;20979;-68
2022/01/27 00:40:34;;;;;;;40.15;15.73;;;2.90;70.30;;;;;;2395440;53;21503;-67
2022/01/27 00:43:01;;;;;;;74.15;28.45;;;2.90;70.30;;;;;;2395656;53;20931;-68
2022/01/27 00:45:29;;;;;;;52.35;21.20;;;2.90;70.30;;;;;;2395056;53;21440;-68
2022/01/27 00:47:56;;;;;;;49.30;19.33;;;2.80;70.20;;;;;;2394804;53;20976;-69
2022/01/27 00:50:23;;;;;;;48.42;18.08;;;2.90;70.40;;;;;;2368164;53;21048;-68
2022/01/27 00:52:53;;;;;;;37.08;16.65;;;2.90;70.40;;;;;;2395994;53;20999;-67
2022/01/27 00:55:22;;;;;;;45.65;19.33;;;2.80;70.30;;;;;;2395519;53;20916;-67
2022/01/27 00:58:04;;;;;;;46.70;16.35;;;2.90;70.50;;;;;;2371625;53;21071;-66
2022/01/27 01:00:38;;;;;;;39.97;13.98;;;2.90;70.40;;;;;;2395612;53;20935;-66
2022/01/27 01:03:12;;;;;;;44.50;16.70;;;2.90;70.30;;;;;;2396719;53;21007;-66
2022/01/27 01:10:54;;;;;;;39.08;12.57;;;2.90;70.20;;;;;;2435972;52;20987;-66
2022/01/27 01:16:07;;;;;;;44.20;14.55;;;2.80;70.10;;;;;;2395568;53;20939;-67
2022/01/27 01:18:53;;;;;;;44.10;14.85;;;2.80;70.10;;;;;;2394980;53;21041;-67
2022/01/27 01:21:44;;;;;;;39.25;14.43;;;2.80;70.10;;;;;;2559704;52;21031;-69
2022/01/27 01:30:08;;;;;;;45.90;15.32;;;2.80;70.10;;;;;;2371386;53;21022;-69
2022/01/27 01:36:15;;;;;;;39.55;13.52;;;2.70;70.00;;;;;;2419668;52;21471;-69
2022/01/27 01:38:43;;;;;;;40.83;13.27;;;2.70;70.20;;;;;;2626564;52;21026;-68
2022/01/27 01:41:09;;;;;;;39.35;14.57;;;2.70;70.30;;;;;;2382731;53;21982;-67
2022/01/27 01:47:18;;;;;;;42.95;15.50;;;2.70;70.20;;;;;;2640167;52;20961;-69
2022/01/27 01:49:44;;;;;;;41.63;14.63;;;2.70;70.20;;;;;;2378388;53;20978;-69
2022/01/27 01:52:10;;;;;;;40.50;12.98;;;2.70;70.20;;;;;;2381745;53;20952;-68
2022/01/27 01:54:36;;;;;;;46.88;15.65;;;2.70;70.30;;;;;;2460354;53;20927;-69
2022/01/27 01:57:04;;;;;;;42.75;14.20;;;2.70;70.40;;;;;;2395148;53;20956;-69
2022/01/27 01:59:31;;;;;;;50.53;15.65;;;2.70;70.40;;;;;;2395075;53;21412;-68
2022/01/27 02:01:58;;;;;;;48.87;15.98;;;2.70;70.30;;;;;;2394007;53;21027;-66
2022/01/27 02:04:24;;;;;;;43.60;14.50;;;2.70;70.30;;;;;;2444973;52;20942;-66
2022/01/27 02:06:58;;;;;;;43.83;15.15;;;2.70;71.00;;;;;;2372948;53;20982;-68
2022/01/27 02:09:36;;;;;;;47.15;16.30;;;2.70;70.30;;;;;;2395201;53;20959;-67
2022/01/27 02:20:21;;;;;;;38.70;13.43;;;2.70;70.30;;;;;;2567581;52;20976;-69
2022/01/27 02:22:47;;;;;;;36.13;12.20;;;2.70;70.30;;;;;;2394638;53;20975;-66
2022/01/27 02:25:13;;;;;;;46.05;15.55;;;2.70;70.50;;;;;;2383192;52;21542;-67
2022/01/27 02:27:39;;;;;;;48.13;16.23;;;2.70;70.40;;;;;;2384184;53;20978;-69
2022/01/27 02:30:06;;;;;;;47.78;15.70;;;2.70;70.30;;;;;;2482908;52;20915;-70
2022/01/27 02:32:33;;;;;;;46.17;16.37;;;2.70;70.90;;;;;;2395095;53;20920;-67
2022/01/27 02:35:00;;;;;;;43.35;16.80;;;2.60;70.10;;;;;;2395162;53;20943;-68
2022/01/27 02:37:27;;;;;;;41.03;15.40;;;2.70;70.30;;;;;;2394985;53;20954;-69
2022/01/27 02:43:22;;;;;;;46.47;16.10;;;2.60;70.20;;;;;;2653498;52;21012;-70
2022/01/27 02:46:09;;;;;;;44.83;15.68;;;2.60;70.30;;;;;;2391758;53;20982;-69
2022/01/27 02:48:38;;;;;;;49.78;15.60;;;2.60;70.20;;;;;;2394512;53;21531;-69
2022/01/27 02:51:04;;;;;;;42.40;15.02;;;2.70;70.50;;;;;;2395282;53;20971;-69
2022/01/27 02:53:32;;;;;;;47.25;15.73;;;2.60;70.40;;;;;;2395332;53;20931;-68
2022/01/27 02:55:58;;;;;;;40.53;14.05;;;2.60;70.40;;;;;;2396877;53;21279;-69
2022/01/27 02:58:25;;;;;;;46.72;15.25;;;2.60;70.40;;;;;;2481585;52;20915;-67
2022/01/27 03:00:51;;;;;;;42.40;15.23;;;2.60;70.40;;;;;;2386563;53;21540;-67
2022/01/27 03:03:17;;;;;;;36.42;13.93;;;2.60;70.40;;;;;;2395568;53;21530;-69
2022/01/27 03:05:43;;;;;;;40.83;14.73;;;2.60;70.40;;;;;;2395474;53;20932;-70
2022/01/27 03:08:10;;;;;;;44.88;14.10;;;2.60;70.40;;;;;;2395322;53;20940;-70
2022/01/27 03:10:39;;;;;;;43.33;14.57;;;2.70;70.60;;;;;;2393191;52;21014;-68
2022/01/27 03:13:05;;;;;;;41.22;14.45;;;2.70;70.60;;;;;;2390110;53;21002;-69
2022/01/27 03:15:46;;;;;;;38.45;13.98;;;2.70;70.60;;;;;;2394391;53;20982;-69
2022/01/27 03:18:14;;;;;;;37.65;13.05;;;2.70;70.50;;;;;;2395973;53;20979;-69
2022/01/27 03:20:41;;;;;;;43.67;13.75;;;2.70;70.60;;;;;;2395163;53;20948;-69
2022/01/27 03:23:39;;;;;;;43.92;14.35;;;2.70;70.70;;;;;;2474531;52;20954;-69
2022/01/27 03:26:05;;;;;;;40.97;13.48;;;2.70;70.50;;;;;;2415433;52;21318;-68
2022/01/27 03:28:31;;;;;;;43.95;15.05;;;2.70;70.60;;;;;;2395220;53;20936;-69
2022/01/27 03:30:58;;;;;;;47.47;15.38;;;2.70;70.60;;;;;;2395651;53;20927;-67
2022/01/27 03:33:24;;;;;;;42.47;15.43;;;2.70;70.50;;;;;;2615863;52;20954;-67
2022/01/27 03:35:51;;;;;;;41.78;13.77;;;2.70;70.50;;;;;;2388111;52;20950;-70
2022/01/27 03:38:17;;;;;;;45.12;15.52;;;2.70;70.50;;;;;;2392154;53;20991;-69
2022/01/27 03:40:43;;;;;;;48.87;16.08;;;2.70;70.50;;;;;;2395558;53;21300;-67
2022/01/27 03:43:13;;;;;;;52.17;16.73;;;2.80;70.50;;;;;;2395196;53;20979;-69
2022/01/27 03:45:41;;;;;;;43.63;14.20;;;2.80;70.50;;;;;;2394655;53;20928;-67
2022/01/27 03:48:08;;;;;;;41.85;13.65;;;2.80;70.50;;;;;;2377378;54;20953;-68
2022/01/27 03:50:35;;;;;;;46.33;15.35;;;2.80;70.70;;;;;;2388729;53;21015;-67
2022/01/27 03:53:01;;;;;;;45.53;15.20;;;2.80;70.80;;;;;;2405468;52;20928;-68
2022/01/27 03:55:31;;;;;;;42.92;13.57;;;2.80;70.80;;;;;;2395501;53;20947;-67
2022/01/27 03:57:57;;;;;;;41.35;14.82;;;2.80;70.90;;;;;;2364852;54;21098;-69
2022/01/27 04:00:23;;;;;;;48.17;15.68;;;2.80;70.80;;;;;;2358474;53;21001;-68
2022/01/27 04:03:05;;;;;;;49.70;16.27;;;2.80;70.80;;;;;;2395651;53;20960;-68
2022/01/27 04:05:39;;;;;;;51.00;17.05;;;2.90;70.90;;;;;;2371104;53;20924;-67
2022/01/27 04:08:06;;;;;;;44.83;16.05;;;2.90;70.70;;;;;;2397606;53;20983;-68
2022/01/27 04:10:33;;;;;;;48.53;16.50;;;2.90;70.60;;;;;;2395024;53;20944;-70
2022/01/27 04:12:59;;;;;;;46.25;16.45;;;2.90;71.30;;;;;;2653302;52;20967;-66
2022/01/27 04:15:25;;;;;;;45.25;16.62;;;2.90;70.50;;;;;;2387715;53;21466;-69
2022/01/27 04:17:52;;;;;;;42.62;14.77;;;2.90;70.50;;;;;;2379307;53;20967;-68
2022/01/27 04:20:18;;;;;;;49.50;15.88;;;2.90;70.50;;;;;;2395296;53;21007;-66
2022/01/27 04:22:45;;;;;;;54.92;17.02;;;2.90;70.60;;;;;;2394787;53;20959;-69
2022/01/27 04:25:12;;;;;;;51.83;17.25;;;2.90;70.50;;;;;;2395483;53;21655;-69
2022/01/27 04:27:42;;;;;;;42.42;15.80;;;2.80;70.50;;;;;;2395642;53;20975;-67
2022/01/27 04:30:16;;;;;;;47.58;16.20;;;2.90;70.60;;;;;;2395749;53;20920;-69
2022/01/27 04:32:50;;;;;;;50.88;17.08;;;2.90;70.60;;;;;;2395146;53;20987;-68
2022/01/27 04:35:19;;;;;;;57.80;19.25;;;2.90;70.60;;;;;;2395220;53;20927;-69
2022/01/27 04:43:58;;;;;;;45.10;15.10;;;2.80;70.20;;;;;;2395396;53;20916;-69
2022/01/27 04:46:38;;;;;;;49.08;18.42;;;2.80;70.10;;;;;;2395220;53;20959;-68
2022/01/27 04:49:06;;;;;;;48.85;16.58;;;2.80;70.10;;;;;;2446557;52;20944;-68
2022/01/27 04:51:34;;;;;;;51.85;17.33;;;2.80;70.20;;;;;;2370491;53;20939;-69
2022/01/27 04:54:25;;;;;;;54.47;19.67;;;2.80;70.30;;;;;;2395542;53;20911;-68
2022/01/27 04:56:52;;;;;;;50.28;18.25;;;2.70;70.20;;;;;;2470350;52;20912;-70
2022/01/27 04:59:23;;;;;;;59.78;20.17;;;2.70;70.20;;;;;;2395349;53;20939;-68
2022/01/27 05:01:59;;;;;;;50.40;17.27;;;2.70;70.30;;;;;;2394672;53;20969;-65
2022/01/27 05:04:30;;;;;;;47.70;16.75;;;2.70;70.30;;;;;;2492822;52;21337;-68
2022/01/27 05:06:57;;;;;;;54.03;17.50;;;2.70;70.40;;;;;;2372665;53;21023;-68
2022/01/27 05:09:24;;;;;;;51.33;18.35;;;2.70;70.40;;;;;;2391474;53;21498;-69
2022/01/27 05:12:08;;;;;;;54.33;19.02;;;2.70;70.50;;;;;;2395013;53;20970;-69
2022/01/27 05:14:37;;;;;;;47.47;16.02;;;2.70;70.50;;;;;;2378183;53;21036;-66
2022/01/27 05:17:04;;;;;;;45.92;16.25;;;2.70;70.50;;;;;;2386905;53;20939;-67
2022/01/27 05:19:30;;;;;;;47.05;17.30;;;2.70;70.50;;;;;;2394988;53;21002;-67
2022/01/27 05:21:56;;;;;;;49.95;17.40;;;2.70;70.50;;;;;;2392769;53;21359;-67
2022/01/27 05:24:25;;;;;;;51.92;19.52;;;2.70;70.50;;;;;;2391953;53;20962;-69
2022/01/27 05:26:52;;;;;;;50.38;18.42;;;2.70;70.50;;;;;;2395436;53;20927;-67
2022/01/27 05:29:18;;;;;;;45.03;17.67;;;2.70;70.40;;;;;;2650404;52;21487;-66
2022/01/27 05:31:46;;;;;;;40.35;15.27;;;2.60;71.00;;;;;;2397366;53;20927;-69
2022/01/27 05:34:12;;;;;;;38.38;13.75;;;2.60;70.40;;;;;;2367193;53;21471;-68
2022/01/27 05:36:38;;;;;;;40.95;14.55;;;2.60;70.60;;;;;;2395218;53;21400;-69
2022/01/27 05:39:04;;;;;;;48.53;16.23;;;2.70;70.70;;;;;;2371202;53;21603;-68
2022/01/27 05:41:31;;;;;;;40.80;15.25;;;2.70;70.60;;;;;;2395004;53;20970;-67
2022/01/27 05:43:57;;;;;;;44.28;15.98;;;2.70;70.50;;;;;;2395079;53;20971;-67
2022/01/27 05:46:23;;;;;;;44.92;15.93;;;2.70;70.60;;;;;;2394639;53;21066;-68
2022/01/27 05:48:50;;;;;;;42.17;16.67;;;2.70;70.60;;;;;;2391180;53;20963;-69
2022/01/27 05:51:17;;;;;;;47.85;18.35;;;2.70;70.50;;;;;;2394404;53;20963;-67
2022/01/27 05:53:44;;;;;;;46.03;18.83;;;2.70;70.40;;;;;;2497146;52;20940;-67
2022/01/27 05:56:10;;;;;;;53.30;19.08;;;2.70;70.10;;;;;;2381647;53;20936;-68
2022/01/27 05:58:36;;;;;;;44.28;16.90;;;2.60;69.90;;;;;;2430196;52;21386;-68
2022/01/27 06:01:03;;;;;;;44.30;16.17;;;2.60;69.90;;;;;;2379258;53;22413;-70
2022/01/27 06:03:32;;;;;;;42.50;17.52;;;2.50;69.90;;;;;;2379874;53;20972;-67
2022/01/27 06:05:58;;;;;;;42.47;15.98;;;2.60;69.90;;;;;;2385364;53;20927;-67
2022/01/27 06:08:28;;;;;;;38.92;14.87;;;2.60;70.00;;;;;;2427279;52;21025;-69
2022/01/27 06:10:57;;;;;;;39.30;14.40;;;2.60;70.20;;;;;;2438041;52;21396;-68
2022/01/27 06:13:43;;;;;;;43.15;14.75;;;2.60;70.30;;;;;;2394480;53;20952;-67
2022/01/27 06:16:12;;;;;;;37.38;13.07;;;2.60;70.30;;;;;;2394490;53;20932;-68
2022/01/27 06:18:38;;;;;;;37.50;14.20;;;2.60;70.50;;;;;;2395278;53;20908;-69
2022/01/27 06:21:07;;;;;;;41.13;15.07;;;2.60;70.50;;;;;;2394116;53;20972;-67
2022/01/27 06:23:33;;;;;;;32.72;12.10;;;2.60;70.40;;;;;;2394895;53;20963;-69
2022/01/27 06:26:00;;;;;;;36.60;12.45;;;2.60;70.50;;;;;;2542345;52;21451;-67
2022/01/27 06:28:27;;;;;;;38.38;13.70;;;2.50;70.50;;;;;;2470107;52;21468;-68
2022/01/27 06:30:54;;;;;;;52.58;18.00;;;2.60;70.60;;;;;;2388532;53;20995;-69
2022/01/27 06:33:22;;;;;;;47.62;16.17;;;2.60;70.60;;;;;;2394784;53;20931;-67
2022/01/27 06:35:52;;;;;;;57.58;18.30;;;2.60;70.60;;;;;;2394862;53;21817;-67
2022/01/27 06:38:18;;;;;;;45.05;16.37;;;2.60;70.50;;;;;;2417485;52;21904;-68
2022/01/27 06:40:44;;;;;;;45.45;16.80;;;2.60;70.40;;;;;;2393997;53;21448;-67
2022/01/27 06:43:14;;;;;;;47.88;17.12;;;2.60;70.30;;;;;;2394324;53;20990;-67
2022/01/27 06:45:41;;;;;;;42.25;15.75;;;2.60;70.10;;;;;;2351272;53;20916;-66
2022/01/27 06:48:07;;;;;;;48.40;19.05;;;2.60;70.00;;;;;;2394368;53;20987;-70
2022/01/27 06:50:38;;;;;;;35.63;14.60;;;2.60;70.10;;;;;;2394850;53;21015;-66
2022/01/27 06:53:04;;;;;;;38.78;14.80;;;2.60;70.20;;;;;;2380960;53;20937;-68
2022/01/27 06:55:35;;;;;;;38.60;15.25;;;2.60;70.30;;;;;;2394474;53;20941;-68
2022/01/27 06:58:01;;;;;;;38.38;13.70;;;2.60;70.40;;;;;;2378908;53;21011;-69
2022/01/27 07:00:27;;;;;;;34.85;13.48;;;2.60;70.50;;;;;;2402267;52;21006;-68
2022/01/27 07:02:54;;;;;;;33.28;12.55;;;2.60;70.50;;;;;;2395084;53;20912;-68
2022/01/27 07:05:22;;;;;;;40.05;14.50;;;2.60;70.60;;;;;;2395154;53;20933;-68
2022/01/27 07:07:48;;;;;;;35.05;13.27;;;2.60;70.70;;;;;;2395360;53;20935;-67
2022/01/27 07:10:15;;;;;;;34.13;12.63;;;2.70;70.80;;;;;;2653099;52;21003;-69
2022/01/27 07:12:41;;;;;;;33.80;12.57;;;2.60;70.70;;;;;;2401800;52;20931;-69
2022/01/27 07:15:10;;;;;;;35.92;13.55;;;2.70;70.70;;;;;;2380617;53;20965;-69
2022/01/27 07:17:36;;;;;;;35.33;12.15;;;2.70;70.60;;;;;;2386277;53;20919;-69
2022/01/27 07:20:16;;;;;;;36.25;13.23;;;2.70;70.50;;;;;;2394555;53;20923;-68
2022/01/27 07:22:44;;;;;;;38.75;12.70;;;2.70;70.30;;;;;;2626091;52;21034;-68
2022/01/27 07:25:10;;;;;;;34.00;12.73;;;2.70;70.40;;;;;;2395047;53;21448;-69
2022/01/27 07:27:36;;;;;;;38.65;13.38;;;2.70;70.50;;;;;;2394221;53;20978;-68
2022/01/27 07:30:03;;;;;;;41.28;14.35;;;2.70;70.50;;;;;;2452692;52;20991;-68
2022/01/27 07:32:31;;;;;;;38.72;13.85;;;2.70;70.50;;;;;;2394733;53;20944;-67
2022/01/27 07:34:57;;;;;;;34.25;13.15;;;2.70;70.60;;;;;;2395557;53;20931;-67
2022/01/27 07:37:23;;;;;;;40.28;14.52;;;2.70;70.50;;;;;;2394467;53;20944;-67
2022/01/27 07:39:51;;;;;;;41.55;16.00;;;2.70;70.50;;;;;;2395694;53;20999;-68
2022/01/27 07:42:20;;;;;;;39.28;14.98;;;2.70;70.40;;;;;;2376830;53;20984;-70
2022/01/27 07:44:46;;;;;;;38.70;14.45;;;2.70;70.30;;;;;;2379616;53;20960;-70
2022/01/27 07:47:12;;;;;;;36.55;15.27;;;2.80;70.40;;;;;;2381073;53;20956;-69
2022/01/27 07:49:41;;;;;;;36.38;13.80;;;2.80;70.40;;;;;;2393814;53;20979;-68
2022/01/27 07:52:09;;;;;;;33.40;14.32;;;2.80;70.40;;;;;;2561535;52;20912;-70
2022/01/27 07:54:36;;;;;;;40.20;15.88;;;2.80;70.40;;;;;;2395273;53;21760;-70
2022/01/27 07:57:03;;;;;;;35.67;14.07;;;2.80;70.40;;;;;;2395185;53;20963;-68
2022/01/27 07:59:29;;;;;;;40.33;14.15;;;2.80;70.40;;;;;;2382068;52;20992;-70
2022/01/27 08:01:56;;;;;;;35.30;14.50;;;2.80;70.40;;;;;;2380190;53;21002;-69
2022/01/27 08:04:22;;;;;;;36.80;13.82;;;2.80;70.30;;;;;;2394666;53;20984;-66
2022/01/27 08:06:51;;;;;;;35.92;12.50;;;2.70;70.10;;;;;;2489425;52;20994;-68
2022/01/27 08:09:18;;;;;;;34.63;12.95;;;2.80;70.20;;;;;;2395172;53;20967;-69
2022/01/27 08:11:44;;;;;;;29.65;11.23;;;2.80;70.20;;;;;;2396537;53;20983;-66
2022/01/27 08:14:12;;;;;;;32.13;12.20;;;2.80;70.20;;;;;;2395310;53;20907;-67
2022/01/27 08:16:38;;;;;;;32.08;11.90;;;2.80;70.30;;;;;;2394889;53;20935;-68
2022/01/27 08:19:05;;;;;;;32.50;11.48;;;2.80;70.30;;;;;;2386173;53;20993;-69
2022/01/27 08:21:31;;;;;;;39.10;12.85;;;2.80;70.30;;;;;;2438320;53;20983;-68
2022/01/27 08:23:59;;;;;;;35.13;14.05;;;2.80;70.30;;;;;;2381819;53;20918;-69
2022/01/27 08:26:36;;;;;;;31.70;11.77;;;2.70;70.20;;;;;;2428790;53;20939;-68
2022/01/27 08:29:12;;;;;;;32.38;11.98;;;2.80;70.40;;;;;;2397228;53;21891;-68
2022/01/27 08:32:30;;;;;;;32.60;12.60;;;2.80;70.40;;;;;;2349288;54;20923;-67
2022/01/27 08:34:57;;;;;;;44.58;15.30;;;2.80;70.40;;;;;;2384170;53;20937;-68
2022/01/27 08:37:23;;;;;;;33.95;12.57;;;2.80;70.10;;;;;;2380272;53;20911;-70
2022/01/27 08:39:52;;;;;;;34.42;13.20;;;2.80;70.10;;;;;;2652571;52;21579;-68
2022/01/27 08:42:18;;;;;;;36.83;12.77;;;2.80;70.10;;;;;;2368205;54;20917;-66
2022/01/27 08:44:45;;;;;;;38.60;13.25;;;2.80;70.10;;;;;;2394988;53;20998;-70
2022/01/27 08:47:12;;;;;;;36.95;13.50;;;2.80;70.00;;;;;;2412470;52;20928;-67
2022/01/27 08:49:38;;;;;;;43.25;14.60;;;2.70;69.90;;;;;;2388511;53;20992;-67
2022/01/27 08:52:05;;;;;;;71.12;22.05;;;2.70;70.00;;;;;;2400887;53;21464;-68
2022/01/27 08:54:31;;;;;;;52.15;18.80;;;2.70;70.10;;;;;;2404693;52;21405;-69
2022/01/27 08:56:57;;;;;;;46.33;17.12;;;2.70;70.10;;;;;;2394536;53;20942;-67
2022/01/27 08:59:26;;;;;;;76.72;23.40;;;2.70;70.10;;;;;;2394869;53;21730;-66
2022/01/27 09:01:57;;;;;;;87.40;27.45;;;2.80;70.20;;;;;;2392588;53;21066;-70
2022/01/27 09:04:23;;;;;;;62.45;22.20;;;2.80;70.30;;;;;;2398260;52;21483;-68
2022/01/27 09:06:49;;;;;;;81.18;29.42;;;2.80;70.20;;;;;;2396579;53;21412;-67
2022/01/27 09:09:16;;;;;;;44.60;17.30;;;2.80;70.20;;;;;;2389776;53;20961;-68
2022/01/27 09:11:46;;;;;;;40.75;16.50;;;2.80;70.30;;;;;;2450726;53;21039;-66
2022/01/27 09:14:14;;;;;;;35.17;13.27;;;2.80;70.20;;;;;;2389367;53;20935;-69
2022/01/27 09:16:40;;;;;;;35.97;13.43;;;2.80;70.10;;;;;;2391262;53;20989;-67
2022/01/27 09:19:11;;;;;;;38.13;15.32;;;2.80;70.20;;;;;;2364338;53;21469;-69
2022/01/27 09:21:45;;;;;;;35.47;13.55;;;2.80;70.10;;;;;;2380808;53;20954;-68
2022/01/27 09:24:15;;;;;;;40.78;15.57;;;2.80;70.10;;;;;;2382236;53;21440;-66
2022/01/27 09:30:21;;;;;;;34.47;13.88;;;2.80;70.00;;;;;;2453521;52;20927;-70
2022/01/27 09:32:48;;;;;;;40.20;15.63;;;2.80;70.10;;;;;;2506640;52;21392;-69
2022/01/27 09:35:15;;;;;;;37.90;14.82;;;2.80;70.20;;;;;;2394975;53;21701;-68
2022/01/27 09:37:41;;;;;;;39.08;15.77;;;2.80;70.10;;;;;;2395206;53;20967;-69
2022/01/27 09:40:08;;;;;;;37.22;14.38;;;2.80;70.20;;;;;;2401547;52;2203519;-68
2022/01/27 09:42:36;;;;;;;31.60;12.93;;;2.80;70.40;;;;;;2371699;53;21490;-68
2022/01/27 09:45:04;;;;;;;30.92;12.80;;;2.80;70.50;;;;;;2375298;53;21018;-66
2022/01/27 09:47:33;;;;;;;35.65;14.10;;;2.80;70.70;;;;;;2402430;52;20967;-67
2022/01/27 09:50:10;;;;;;;32.70;12.93;;;2.80;70.80;;;;;;2394913;53;20971;-69
2022/01/27 09:52:36;;;;;;;35.45;13.57;;;2.90;71.10;;;;;;2352962;53;21011;-70
2022/01/27 09:55:04;;;;;;;31.87;12.32;;;2.90;71.10;;;;;;2393668;53;20928;-68
2022/01/27 09:57:30;;;;;;;29.83;12.52;;;3.00;71.30;;;;;;2394846;53;20915;-68
2022/01/27 09:59:57;;;;;;;34.08;14.20;;;3.00;71.30;;;;;;2394011;52;21556;-67
2022/01/27 10:02:26;;;;;;;32.53;13.40;;;3.10;71.30;;;;;;2612233;52;20987;-69
2022/01/27 10:04:57;;;;;;;33.13;13.25;;;3.10;71.50;;;;;;2395274;53;21805;-67
2022/01/27 10:07:30;;;;;;;36.10;13.50;;;3.20;71.60;;;;;;2395438;53;20983;-68
2022/01/27 10:10:11;;;;;;;35.88;14.60;;;3.30;71.70;;;;;;2395525;53;20955;-70
2022/01/27 10:12:45;;;;;;;35.95;14.75;;;3.30;71.60;;;;;;2500374;52;21016;-68
2022/01/27 10:15:20;;;;;;;35.70;14.98;;;3.40;71.60;;;;;;2454673;52;21000;-66
2022/01/27 10:18:14;;;;;;;34.00;14.35;;;3.40;71.60;;;;;;2395685;53;20932;-68
2022/01/27 10:20:49;;;;;;;37.95;15.48;;;3.50;71.40;;;;;;2371123;53;20947;-70
2022/01/27 10:23:26;;;;;;;31.48;13.05;;;3.50;71.30;;;;;;2391008;53;21411;-68
2022/01/27 10:25:55;;;;;;;30.17;12.50;;;3.60;71.40;;;;;;2377173;53;21044;-67
2022/01/27 10:31:41;;;;;;;31.92;13.35;;;3.70;71.40;;;;;;2368074;54;21004;-67
2022/01/27 10:34:08;;;;;;;29.37;12.07;;;3.70;71.40;;;;;;2372485;53;20915;-69
2022/01/27 10:36:41;;;;;;;30.75;12.35;;;3.80;71.50;;;;;;2621699;52;20925;-70
2022/01/27 10:39:09;;;;;;;24.70;11.27;;;3.80;71.40;;;;;;2394226;53;21051;-67
2022/01/27 10:41:37;;;;;;;27.83;12.37;;;3.90;71.60;;;;;;2394915;53;20939;-69
2022/01/27 10:44:16;;;;;;;32.60;13.75;;;3.90;71.60;;;;;;2395338;53;20999;-69
2022/01/27 10:47:31;;;;;;;31.30;14.27;;;4.00;71.30;;;;;;2394853;53;20956;-69
2022/01/27 10:50:04;;;;;;;40.40;16.12;;;4.00;70.50;;;;;;2652987;52;20924;-68
2022/01/27 10:52:40;;;;;;;32.40;14.50;;;4.10;71.00;;;;;;2652947;52;20991;-68
2022/01/27 10:55:15;;;;;;;34.30;15.40;;;4.10;71.10;;;;;;2394968;53;21801;-69
2022/01/27 10:57:49;;;;;;;31.42;14.85;;;4.10;70.90;;;;;;2504005;52;20912;-68
2022/01/27 11:00:17;;;;;;;34.95;15.45;;;4.10;71.00;;;;;;2395472;53;20939;-70
2022/01/27 11:03:01;;;;;;;33.83;14.68;;;4.20;71.10;;;;;;2370829;53;20974;-67
2022/01/27 11:05:30;;;;;;;32.00;12.80;;;4.20;70.80;;;;;;2394823;53;20999;-67
2022/01/27 11:07:56;;;;;;;29.42;13.93;;;4.20;71.10;;;;;;2418675;52;21812;-68
2022/01/27 11:10:25;;;;;;;28.65;12.40;;;4.20;71.20;;;;;;2393933;53;20920;-68
2022/01/27 11:12:51;;;;;;;28.73;12.68;;;4.30;71.20;;;;;;2394926;53;20943;-67
2022/01/27 11:15:19;;;;;;;30.80;13.20;;;4.30;71.20;;;;;;2395460;54;20955;-68
2022/01/27 11:17:46;;;;;;;26.23;12.05;;;4.20;71.10;;;;;;2371007;53;20959;-67
2022/01/27 11:20:33;;;;;;;29.25;13.05;;;4.40;71.20;;;;;;2394400;53;21003;-69
2022/01/27 11:27:01;;;;;;;26.67;12.45;;;4.40;70.80;;;;;;2404131;52;21520;-67
2022/01/27 11:29:28;;;;;;;26.45;11.73;;;4.50;70.90;;;;;;2394724;53;21854;-67
2022/01/27 11:33:58;;;;;;;24.73;11.25;;;4.50;70.90;;;;;;2395274;53;20944;-66
2022/01/27 11:36:25;;;;;;;26.73;11.07;;;4.50;70.10;;;;;;2395509;53;20931;-68
2022/01/27 11:38:51;;;;;;;26.87;11.82;;;4.60;71.00;;;;;;2394041;53;21015;-65
2022/01/27 11:41:50;;;;;;;24.17;11.43;;;4.60;71.00;;;;;;2396994;52;20932;-69
2022/01/27 11:44:36;;;;;;;27.05;12.43;;;4.60;70.50;;;;;;2393753;53;20939;-65
2022/01/27 11:47:47;;;;;;;27.08;12.30;;;4.70;71.00;;;;;;2417293;52;21384;-68
2022/01/27 11:50:31;;;;;;;25.25;11.60;;;4.70;70.60;;;;;;2394376;53;21341;-68
2022/01/27 11:52:57;;;;;;;24.55;11.00;;;4.70;71.00;;;;;;2396804;53;21014;-68
2022/01/27 11:58:55;;;;;;;23.52;10.18;;;4.80;71.20;;;;;;2615717;52;21511;-68
2022/01/27 12:01:22;;;;;;;23.62;10.30;;;4.80;71.50;;;;;;2389184;53;21350;-68
2022/01/27 12:07:20;;;;;;;26.30;11.73;;;4.80;71.50;;;;;;2391453;53;21037;-69
2022/01/27 12:09:49;;;;;;;29.95;11.65;;;5.00;70.60;;;;;;2391586;53;20982;-67
2022/01/27 12:12:28;;;;;;;27.42;12.45;;;5.00;71.50;;;;;;2392177;53;21444;-66
2022/01/27 12:15:07;;;;;;;30.40;12.43;;;5.00;71.10;;;;;;2377882;53;20979;-69
2022/01/27 12:17:34;;;;;;;26.73;12.70;;;5.10;71.30;;;;;;2391000;53;21288;-69
2022/01/27 12:20:10;;;;;;;32.17;12.35;;;5.10;71.60;;;;;;2620780;52;21581;-68
2022/01/27 12:23:19;;;;;;;24.40;11.43;;;5.10;71.60;;;;;;2394410;53;20972;-67
2022/01/27 12:25:50;;;;;;;30.58;13.98;;;5.20;70.90;;;;;;2393360;53;20884;-69
2022/01/27 12:28:16;;;;;;;24.60;12.20;;;5.20;71.20;;;;;;2380404;53;21398;-69
2022/01/27 12:30:56;;;;;;;24.50;10.73;;;5.20;71.20;;;;;;2377765;53;21014;-68
2022/01/27 12:33:23;;;;;;;21.12;9.57;;;5.30;71.30;;;;;;2635248;52;21739;-66
2022/01/27 12:35:54;;;;;;;22.00;10.07;;;5.30;71.70;;;;;;2394713;53;20920;-66
2022/01/27 12:38:21;;;;;;;19.98;9.98;;;5.40;71.90;;;;;;2394696;53;20915;-67
2022/01/27 12:40:54;;;;;;;22.23;11.52;;;5.40;71.90;;;;;;2395404;53;21015;-67
2022/01/27 12:43:21;;;;;;;20.50;10.23;;;5.50;71.70;;;;;;2388956;53;20999;-68
2022/01/27 12:45:48;;;;;;;22.70;10.88;;;5.50;71.80;;;;;;2514038;52;21003;-68
2022/01/27 12:48:20;;;;;;;23.48;10.50;;;5.60;71.70;;;;;;2393153;53;21566;-66
2022/01/27 12:50:47;;;;;;;22.35;10.65;;;5.60;71.50;;;;;;2369572;54;20936;-69
2022/01/27 12:53:15;;;;;;;23.23;11.00;;;5.70;71.60;;;;;;2394922;53;20952;-67
2022/01/27 12:55:43;;;;;;;21.58;10.73;;;5.70;71.50;;;;;;2394919;53;20991;-67
2022/01/27 12:58:17;;;;;;;20.80;9.73;;;5.70;71.30;;;;;;2394532;53;21533;-67
2022/01/27 13:00:50;;;;;;;21.52;10.93;;;5.80;71.40;;;;;;2396533;53;20919;-66
2022/01/27 13:03:16;;;;;;;20.85;10.93;;;5.70;71.00;;;;;;2394482;53;20940;-66
2022/01/27 13:05:49;;;;;;;18.42;8.85;;;5.80;71.00;;;;;;2394583;53;21487;-68
2022/01/27 13:08:16;;;;;;;;;;;5.80;71.10;;;;;;2398587;53;20936;-66
2022/01/27 13:11:08;;;;;;;19.40;9.02;;;5.80;70.40;;;;;;2393848;53;20395;-67
2022/01/27 13:13:50;;;;;;;18.65;9.40;;;5.80;70.80;;;;;;2483738;52;20991;-66
2022/01/27 13:16:22;;;;;;;21.67;9.93;;;5.80;70.80;;;;;;2372818;53;21024;-67
2022/01/27 13:19:05;;;;;;;20.25;10.07;;;5.80;70.90;;;;;;2649983;52;21551;-69
2022/01/27 13:21:34;;;;;;;24.48;10.90;;;5.90;70.90;;;;;;2367154;53;21943;-66
2022/01/27 13:24:17;;;;;;;21.45;10.63;;;5.80;71.00;;;;;;2370279;54;20960;-66
2022/01/27 13:26:46;;;;;;;25.37;11.40;;;5.90;70.80;;;;;;2471144;52;20998;-66
2022/01/27 13:29:13;;;;;;;19.58;9.55;;;5.80;70.80;;;;;;2460991;52;20968;-66
2022/01/27 13:31:39;;;;;;;20.35;9.52;;;5.90;71.10;;;;;;2394031;53;21011;-66
2022/01/27 13:34:05;;;;;;;19.20;9.65;;;5.90;71.10;;;;;;2394905;53;20987;-65
2022/01/27 13:36:36;;;;;;;21.00;10.20;;;5.90;71.00;;;;;;2394596;53;20960;-68
2022/01/27 13:39:24;;;;;;;22.92;9.77;;;5.90;70.90;;;;;;2393475;53;20964;-69
2022/01/27 13:41:51;;;;;;;23.62;10.48;;;5.90;70.90;;;;;;2394828;53;20994;-68
2022/01/27 13:44:18;;;;;;;19.65;9.55;;;5.90;71.00;;;;;;2508792;52;20983;-66
2022/01/27 13:46:49;;;;;;;23.85;11.52;;;5.90;70.90;;;;;;2553260;52;21020;-66
2022/01/27 13:49:35;;;;;;;20.33;10.13;;;6.00;70.90;;;;;;2376145;53;20962;-69
2022/01/27 13:52:12;;;;;;;24.73;11.27;;;5.90;70.40;;;;;;2370728;53;20944;-65
2022/01/27 13:54:49;;;;;;;24.02;10.48;;;6.00;70.90;;;;;;2371042;53;20980;-66